createdAt,value
2023-02-17T00:00:24.261Z,1.76
2023-02-17T00:03:25.899Z,1.75
2023-02-17T00:06:20.599Z,1.73
2023-02-17T00:08:55.903Z,1.74
2023-02-17T00:11:33.470Z,1.75
2023-02-17T00:14:25.828Z,1.76
2023-02-17T00:17:18.077Z,1.75
2023-02-17T00:20:11.888Z,1.78
2023-02-17T00:23:04.013Z,1.89
2023-02-17T00:25:56.040Z,1.93
2023-02-17T00:28:49.013Z,2.00
2023-02-17T00:31:41.201Z,2.09
2023-02-17T00:34:33.886Z,2.17
2023-02-17T00:37:26.211Z,2.28
2023-02-17T00:40:18.612Z,2.38
2023-02-17T00:43:10.701Z,2.42
2023-02-17T00:46:04.301Z,2.47
2023-02-17T00:48:56.688Z,2.52
2023-02-17T00:51:49.098Z,2.57
2023-02-17T00:54:41.970Z,2.56
2023-02-17T00:57:34.024Z,2.58
2023-02-17T01:00:26.285Z,2.58
2023-02-17T01:03:18.849Z,2.58
2023-02-17T01:06:15.424Z,2.56
2023-02-17T01:09:10.060Z,2.54
2023-02-17T01:12:02.199Z,2.53
2023-02-17T01:14:54.222Z,2.47
2023-02-17T01:17:28.870Z,2.45
2023-02-17T01:20:21.441Z,2.45
2023-02-17T01:23:14.220Z,2.44
2023-02-17T01:26:06.553Z,2.44
2023-02-17T01:28:59.662Z,2.44
2023-02-17T01:31:51.804Z,2.44
2023-02-17T01:34:43.950Z,2.42
2023-02-17T01:37:36.351Z,2.40
2023-02-17T01:40:28.425Z,2.41
2023-02-17T01:43:20.860Z,2.42
2023-02-17T01:46:04.936Z,2.44
2023-02-17T01:48:57.350Z,2.58
2023-02-17T01:51:54.021Z,2.60
2023-02-17T01:54:52.272Z,2.64
2023-02-17T01:57:47.271Z,2.70
2023-02-17T02:00:39.808Z,2.77
2023-02-17T02:03:35.824Z,2.85
2023-02-17T02:06:29.913Z,2.92
2023-02-17T02:09:26.850Z,2.95
2023-02-17T02:12:22.538Z,2.97
2023-02-17T02:15:17.843Z,2.98
2023-02-17T02:18:25.640Z,2.96
2023-02-17T02:21:50.569Z,2.92
2023-02-17T02:24:48.835Z,2.84
2023-02-17T02:28:02.532Z,2.75
2023-02-17T02:31:05.918Z,2.69
2023-02-17T02:34:01.843Z,2.63
2023-02-17T02:37:00.130Z,2.60
2023-02-17T02:39:55.442Z,2.54
2023-02-17T02:42:47.980Z,2.50
2023-02-17T02:45:40.228Z,2.47
2023-02-17T02:48:32.584Z,2.45
2023-02-17T02:51:21.959Z,2.44
2023-02-17T02:54:23.416Z,2.40
2023-02-17T02:57:38.177Z,2.39
2023-02-17T03:00:37.969Z,2.39
2023-02-17T03:03:40.817Z,2.39
2023-02-17T03:06:39.928Z,2.37
2023-02-17T03:09:32.764Z,2.37
2023-02-17T03:12:26.832Z,2.35
2023-02-17T03:15:24.689Z,2.37
2023-02-17T03:18:12.982Z,2.46
2023-02-17T03:21:12.749Z,2.51
2023-02-17T03:24:05.364Z,2.55
2023-02-17T03:26:57.546Z,2.63
2023-02-17T03:29:49.695Z,2.73
2023-02-17T03:32:27.097Z,2.82
2023-02-17T03:35:19.132Z,2.91
2023-02-17T03:38:19.581Z,2.96
2023-02-17T03:41:11.629Z,3.02
2023-02-17T03:44:03.706Z,3.05
2023-02-17T03:46:55.782Z,3.02
2023-02-17T03:49:48.020Z,2.99
2023-02-17T03:52:40.171Z,2.98
2023-02-17T03:55:32.304Z,2.99
2023-02-17T03:58:24.387Z,2.97
2023-02-17T04:01:16.607Z,2.92
2023-02-17T04:04:08.659Z,2.85
2023-02-17T04:07:00.891Z,2.84
2023-02-17T04:09:52.996Z,2.84
2023-02-17T04:12:45.266Z,2.81
2023-02-17T04:15:22.742Z,2.78
2023-02-17T04:18:04.803Z,2.76
2023-02-17T04:20:52.699Z,2.74
2023-02-17T04:23:44.766Z,2.75
2023-02-17T04:26:36.982Z,2.74
2023-02-17T04:29:29.085Z,2.76
2023-02-17T04:32:21.177Z,2.77
2023-02-17T04:34:56.064Z,2.79
2023-02-17T04:37:48.216Z,2.85
2023-02-17T04:40:40.634Z,3.00
2023-02-17T04:43:33.113Z,3.05
2023-02-17T04:46:25.316Z,3.11
2023-02-17T04:49:17.380Z,3.22
2023-02-17T04:52:09.657Z,3.31
2023-02-17T04:55:01.924Z,3.39
2023-02-17T04:57:54.015Z,3.45
2023-02-17T05:00:47.283Z,3.52
2023-02-17T05:03:39.337Z,3.56
2023-02-17T05:06:26.347Z,3.59
2023-02-17T05:09:18.412Z,3.58
2023-02-17T05:12:10.919Z,3.60
2023-02-17T05:15:02.984Z,3.62
2023-02-17T05:17:55.081Z,3.61
2023-02-17T05:20:47.136Z,3.58
2023-02-17T05:23:41.282Z,3.57
2023-02-17T05:26:33.451Z,3.54
2023-02-17T05:29:25.582Z,3.54
2023-02-17T05:32:17.974Z,3.54
2023-02-17T05:34:52.151Z,3.53
2023-02-17T05:37:44.256Z,3.53
2023-02-17T05:40:36.413Z,3.53
2023-02-17T05:43:28.823Z,3.53
2023-02-17T05:46:22.906Z,3.53
2023-02-17T05:49:15.084Z,3.54
2023-02-17T05:52:07.465Z,3.54
2023-02-17T05:54:59.541Z,3.56
2023-02-17T05:57:51.797Z,3.68
2023-02-17T06:00:43.958Z,3.72
2023-02-17T06:03:36.232Z,3.78
2023-02-17T06:06:28.322Z,3.84
2023-02-17T06:09:20.576Z,3.91
2023-02-17T06:12:13.131Z,3.98
2023-02-17T06:14:59.010Z,4.01
2023-02-17T06:17:51.148Z,4.06
2023-02-17T06:20:26.126Z,4.11
2023-02-17T06:23:08.221Z,4.14
2023-02-17T06:26:00.386Z,4.17
2023-02-17T06:28:52.567Z,4.20
2023-02-17T06:31:44.814Z,4.20
2023-02-17T06:34:37.134Z,4.21
2023-02-17T06:37:29.297Z,4.22
2023-02-17T06:40:22.127Z,4.21
2023-02-17T06:43:14.378Z,4.22
2023-02-17T06:46:02.572Z,4.23
2023-02-17T06:48:54.873Z,4.23
2023-02-17T06:51:47.007Z,4.24
2023-02-17T06:54:39.143Z,4.26
2023-02-17T06:57:31.361Z,4.27
2023-02-17T07:00:24.738Z,4.27
2023-02-17T07:03:16.794Z,4.28
2023-02-17T07:05:57.501Z,4.35
2023-02-17T07:08:50.029Z,4.52
2023-02-17T07:11:44.416Z,4.60
2023-02-17T07:14:37.465Z,4.69
2023-02-17T07:17:26.023Z,4.80
2023-02-17T07:20:18.245Z,4.93
2023-02-17T07:23:10.329Z,5.05
2023-02-17T07:26:09.407Z,5.12
2023-02-17T07:29:01.811Z,5.22
2023-02-17T07:31:54.027Z,5.28
2023-02-17T07:34:46.213Z,5.34
2023-02-17T07:37:21.871Z,5.39
2023-02-17T07:39:58.129Z,5.44
2023-02-17T07:42:50.417Z,5.46
2023-02-17T07:45:42.590Z,5.51
2023-02-17T07:48:34.744Z,5.55
2023-02-17T07:51:27.069Z,5.58
2023-02-17T07:54:19.143Z,5.60
2023-02-17T07:57:11.250Z,5.63
2023-02-17T07:59:46.973Z,5.66
2023-02-17T08:02:21.852Z,5.69
2023-02-17T08:05:14.065Z,5.75
2023-02-17T08:08:24.042Z,5.78
2023-02-17T08:11:35.211Z,5.84
2023-02-17T08:14:29.375Z,5.89
2023-02-17T08:17:19.918Z,5.92
2023-02-17T08:20:15.676Z,5.94
2023-02-17T08:23:07.849Z,5.97
2023-02-17T08:26:01.237Z,5.99
2023-02-17T08:28:53.442Z,6.08
2023-02-17T08:31:46.001Z,6.19
2023-02-17T08:34:28.775Z,6.26
2023-02-17T08:37:20.804Z,6.34
2023-02-17T08:39:59.022Z,6.40
2023-02-17T08:42:51.145Z,6.44
2023-02-17T08:45:34.643Z,6.47
2023-02-17T08:48:26.734Z,6.50
2023-02-17T08:50:58.812Z,6.52
2023-02-17T08:53:51.060Z,6.56
2023-02-17T08:56:44.071Z,6.56
2023-02-17T08:59:36.132Z,6.59
2023-02-17T09:02:16.737Z,6.59
2023-02-17T09:05:09.741Z,6.59
2023-02-17T09:08:02.027Z,6.62
2023-02-17T09:10:44.264Z,6.64
2023-02-17T09:13:36.744Z,6.62
2023-02-17T09:16:29.083Z,6.64
2023-02-17T09:19:21.419Z,6.64
2023-02-17T09:22:30.555Z,6.64
2023-02-17T09:25:23.772Z,6.72
2023-02-17T09:28:07.818Z,6.76
2023-02-17T09:31:00.225Z,6.77
2023-02-17T09:33:52.748Z,6.80
2023-02-17T09:36:45.313Z,6.87
2023-02-17T09:39:37.473Z,6.90
2023-02-17T09:42:31.234Z,6.91
2023-02-17T09:45:27.288Z,6.90
2023-02-17T09:48:22.215Z,6.94
2023-02-17T09:51:21.021Z,7.01
2023-02-17T09:54:19.922Z,7.09
2023-02-17T09:57:19.757Z,7.11
2023-02-17T10:00:17.081Z,7.15
2023-02-17T10:03:17.736Z,7.15
2023-02-17T10:06:16.350Z,7.18
2023-02-17T10:09:17.005Z,7.25
2023-02-17T10:12:14.681Z,7.35
2023-02-17T10:15:13.663Z,7.39
2023-02-17T10:18:12.407Z,7.45
2023-02-17T10:21:11.166Z,7.50
2023-02-17T10:23:51.441Z,7.45
2023-02-17T10:26:58.440Z,7.41
2023-02-17T10:29:58.292Z,7.42
2023-02-17T10:33:00.162Z,7.38
2023-02-17T10:35:46.495Z,7.39
2023-02-17T10:38:48.201Z,7.41
2023-02-17T10:41:44.256Z,7.46
2023-02-17T10:44:39.223Z,7.49
2023-02-17T10:47:32.256Z,7.54
2023-02-17T10:50:26.528Z,7.55
2023-02-17T10:53:19.067Z,7.52
2023-02-17T10:56:15.832Z,7.60
2023-02-17T10:59:14.183Z,7.63
2023-02-17T11:02:19.424Z,7.63
2023-02-17T11:05:23.163Z,7.66
2023-02-17T11:08:29.537Z,7.64
2023-02-17T11:11:24.068Z,7.62
2023-02-17T11:14:21.816Z,7.56
2023-02-17T11:17:22.972Z,7.52
2023-02-17T11:20:31.051Z,7.52
2023-02-17T11:23:27.010Z,7.48
2023-02-17T11:26:26.208Z,7.44
2023-02-17T11:29:22.534Z,7.49
2023-02-17T11:32:14.762Z,7.55
2023-02-17T11:35:21.916Z,7.61
2023-02-17T11:38:11.330Z,7.64
2023-02-17T11:41:06.856Z,7.66
2023-02-17T11:44:00.338Z,7.71
2023-02-17T11:47:01.129Z,7.75
2023-02-17T11:50:40.809Z,7.77
2023-02-17T11:53:45.912Z,7.72
2023-02-17T11:56:41.968Z,7.65
2023-02-17T11:59:44.659Z,7.60
2023-02-17T12:03:04.124Z,7.61
2023-02-17T12:06:18.576Z,7.59
2023-02-17T12:09:19.739Z,7.55
2023-02-17T12:12:20.735Z,7.64
2023-02-17T12:15:04.396Z,7.68
2023-02-17T12:17:47.721Z,7.70
2023-02-17T12:20:50.502Z,7.72
2023-02-17T12:24:08.520Z,7.76
2023-02-17T12:27:08.534Z,7.75
2023-02-17T12:30:14.904Z,7.76
2023-02-17T12:33:23.945Z,7.69
2023-02-17T12:36:18.709Z,7.70
2023-02-17T12:39:16.810Z,7.71
2023-02-17T12:42:13.137Z,7.74
2023-02-17T12:45:15.828Z,7.71
2023-02-17T12:48:14.060Z,7.69
2023-02-17T12:51:11.218Z,7.67
2023-02-17T12:54:12.869Z,7.79
2023-02-17T12:57:22.340Z,7.83
2023-02-17T13:00:24.019Z,7.85
2023-02-17T13:03:16.430Z,7.86
2023-02-17T13:06:26.577Z,7.83
2023-02-17T13:09:30.556Z,7.86
2023-02-17T13:12:36.161Z,7.88
2023-02-17T13:15:33.303Z,7.86
2023-02-17T13:18:33.405Z,7.82
2023-02-17T13:21:28.743Z,7.81
2023-02-17T13:24:08.018Z,7.83
2023-02-17T13:27:10.239Z,7.83
2023-02-17T13:30:04.866Z,7.83
2023-02-17T13:33:05.398Z,7.85
2023-02-17T13:35:57.502Z,7.84
2023-02-17T13:39:01.797Z,7.83
2023-02-17T13:41:54.502Z,7.91
2023-02-17T13:44:49.069Z,8.03
2023-02-17T13:47:42.163Z,8.03
2023-02-17T13:50:37.730Z,8.04
2023-02-17T13:53:32.691Z,8.02
2023-02-17T13:56:29.464Z,8.08
2023-02-17T13:59:28.364Z,8.10
2023-02-17T14:02:35.501Z,8.11
2023-02-17T14:05:38.745Z,8.10
2023-02-17T14:08:38.020Z,8.08
2023-02-17T14:11:33.088Z,8.06
2023-02-17T14:14:29.520Z,7.99
2023-02-17T14:17:32.965Z,7.99
2023-02-17T14:20:30.853Z,8.08
2023-02-17T14:23:10.030Z,8.10
2023-02-17T14:26:13.780Z,8.13
2023-02-17T14:29:08.478Z,8.11
2023-02-17T14:32:00.687Z,8.13
2023-02-17T14:34:52.961Z,8.12
2023-02-17T14:37:45.416Z,8.08
2023-02-17T14:40:39.907Z,8.02
2023-02-17T14:43:21.290Z,7.99
2023-02-17T14:46:14.348Z,8.00
2023-02-17T14:48:46.183Z,8.00
2023-02-17T14:51:39.519Z,7.98
2023-02-17T14:54:32.200Z,7.97
2023-02-17T14:57:09.240Z,7.94
2023-02-17T14:59:59.770Z,7.87
2023-02-17T15:02:52.670Z,7.84
2023-02-17T15:05:45.362Z,7.79
2023-02-17T15:08:38.467Z,7.69
2023-02-17T15:11:34.260Z,7.71
2023-02-17T15:14:26.686Z,7.74
2023-02-17T15:17:19.103Z,7.77
2023-02-17T15:20:05.503Z,7.77
2023-02-17T15:22:58.713Z,7.73
2023-02-17T15:25:52.031Z,7.71
2023-02-17T15:28:44.160Z,7.70
2023-02-17T15:31:36.406Z,7.64
2023-02-17T15:34:31.978Z,7.60
2023-02-17T15:37:24.133Z,7.63
2023-02-17T15:40:01.532Z,7.71
2023-02-17T15:42:57.578Z,7.72
2023-02-17T15:45:49.685Z,7.69
2023-02-17T15:48:42.251Z,7.67
2023-02-17T15:51:34.497Z,7.68
2023-02-17T15:54:26.674Z,7.67
2023-02-17T15:57:09.026Z,7.65
2023-02-17T16:00:01.189Z,7.65
2023-02-17T16:02:54.405Z,7.70
2023-02-17T16:05:47.834Z,7.79
2023-02-17T16:08:40.048Z,7.80
2023-02-17T16:11:32.938Z,7.81
2023-02-17T16:14:29.286Z,7.83
2023-02-17T16:17:21.644Z,7.86
2023-02-17T16:20:22.503Z,7.88
2023-02-17T16:23:14.664Z,7.87
2023-02-17T16:26:14.830Z,7.87
2023-02-17T16:29:17.156Z,7.92
2023-02-17T16:32:11.338Z,8.02
2023-02-17T16:35:01.883Z,7.98
2023-02-17T16:37:57.794Z,7.93
2023-02-17T16:40:51.961Z,7.94
2023-02-17T16:43:44.819Z,7.94
2023-02-17T16:46:29.623Z,7.94
2023-02-17T16:49:20.594Z,7.97
2023-02-17T16:52:26.081Z,8.08
2023-02-17T16:55:20.438Z,8.10
2023-02-17T16:58:18.292Z,8.09
2023-02-17T17:01:12.566Z,8.13
2023-02-17T17:04:03.157Z,8.15
2023-02-17T17:06:55.438Z,8.13
2023-02-17T17:10:14.370Z,8.25
2023-02-17T17:12:59.975Z,8.30
2023-02-17T17:15:52.293Z,8.35
2023-02-17T17:18:44.542Z,8.35
2023-02-17T17:21:20.943Z,8.34
2023-02-17T17:24:13.117Z,8.35
2023-02-17T17:26:55.870Z,8.36
2023-02-17T17:29:30.276Z,8.37
2023-02-17T17:32:22.367Z,8.48
2023-02-17T17:35:14.711Z,8.54
2023-02-17T17:38:06.775Z,8.53
2023-02-17T17:40:58.829Z,8.52
2023-02-17T17:43:51.648Z,8.55
2023-02-17T17:46:43.908Z,8.56
2023-02-17T17:49:36.306Z,8.60
2023-02-17T17:52:28.447Z,8.67
2023-02-17T17:55:20.734Z,8.65
2023-02-17T17:58:12.962Z,8.63
2023-02-17T18:01:05.117Z,8.63
2023-02-17T18:03:58.096Z,8.62
2023-02-17T18:06:50.352Z,8.64
2023-02-17T18:09:42.629Z,8.72
2023-02-17T18:12:35.245Z,8.73
2023-02-17T18:15:27.433Z,8.73
2023-02-17T18:18:20.293Z,8.68
2023-02-17T18:21:12.510Z,8.66
2023-02-17T18:24:04.724Z,8.62
2023-02-17T18:26:56.927Z,8.59
2023-02-17T18:29:49.023Z,8.61
2023-02-17T18:32:41.620Z,8.68
2023-02-17T18:35:38.668Z,8.68
2023-02-17T18:38:31.031Z,8.65
2023-02-17T18:41:25.497Z,8.62
2023-02-17T18:44:04.669Z,8.62
2023-02-17T18:46:56.997Z,8.62
2023-02-17T18:49:49.485Z,8.66
2023-02-17T18:52:42.928Z,8.75
2023-02-17T18:55:37.471Z,8.78
2023-02-17T18:58:30.544Z,8.80
2023-02-17T19:01:24.901Z,8.79
2023-02-17T19:04:17.209Z,8.79
2023-02-17T19:07:09.374Z,8.79
2023-02-17T19:10:01.779Z,8.81
2023-02-17T19:12:54.159Z,8.90
2023-02-17T19:15:26.330Z,8.92
2023-02-17T19:18:09.869Z,8.91
2023-02-17T19:21:02.205Z,8.90
2023-02-17T19:23:54.677Z,8.91
2023-02-17T19:26:46.944Z,8.92
2023-02-17T19:29:39.089Z,8.91
2023-02-17T19:32:31.243Z,8.96
2023-02-17T19:35:23.393Z,8.91
2023-02-17T19:38:15.725Z,8.85
2023-02-17T19:41:10.152Z,8.80
2023-02-17T19:44:00.637Z,8.78
2023-02-17T19:46:53.815Z,8.78
2023-02-17T19:49:46.076Z,8.82
2023-02-17T19:52:39.419Z,8.82
2023-02-17T19:55:31.716Z,8.84
2023-02-17T19:58:24.299Z,8.85
2023-02-17T20:01:18.862Z,8.82
2023-02-17T20:04:11.129Z,8.77
2023-02-17T20:07:04.059Z,8.74
2023-02-17T20:09:56.481Z,8.73
2023-02-17T20:12:31.704Z,8.73
2023-02-17T20:15:05.248Z,8.79
2023-02-17T20:17:57.504Z,8.78
2023-02-17T20:20:55.717Z,8.81
2023-02-17T20:23:48.040Z,8.82
2023-02-17T20:26:44.425Z,8.80
2023-02-17T20:29:36.564Z,8.77
2023-02-17T20:32:28.857Z,8.75
2023-02-17T20:35:21.105Z,8.80
2023-02-17T20:37:55.925Z,8.89
2023-02-17T20:40:48.170Z,8.91
2023-02-17T20:43:40.439Z,8.92
2023-02-17T20:46:33.707Z,8.94
2023-02-17T20:49:26.301Z,8.94
2023-02-17T20:52:01.394Z,8.94
2023-02-17T20:54:53.632Z,8.95
2023-02-17T20:57:46.082Z,9.03
2023-02-17T21:00:38.489Z,9.07
2023-02-17T21:03:13.765Z,9.11
2023-02-17T21:06:15.534Z,9.13
2023-02-17T21:09:10.012Z,9.14
2023-02-17T21:12:02.084Z,9.16
2023-02-17T21:14:56.995Z,9.16
2023-02-17T21:17:49.602Z,9.22
2023-02-17T21:20:42.081Z,9.30
2023-02-17T21:23:34.566Z,9.34
2023-02-17T21:26:27.412Z,9.37
2023-02-17T21:29:19.505Z,9.37
2023-02-17T21:32:11.584Z,9.40
2023-02-17T21:35:03.697Z,9.42
2023-02-17T21:37:55.797Z,9.41
2023-02-17T21:40:48.691Z,9.50
2023-02-17T21:43:58.972Z,9.51
2023-02-17T21:46:51.934Z,9.52
2023-02-17T21:49:44.128Z,9.50
2023-02-17T21:52:36.268Z,9.51
2023-02-17T21:55:28.868Z,9.55
2023-02-17T21:58:03.587Z,9.56
2023-02-17T22:00:38.368Z,9.58
2023-02-17T22:03:30.470Z,9.68
2023-02-17T22:06:21.872Z,9.69
2023-02-17T22:09:17.976Z,9.73
2023-02-17T22:12:10.396Z,9.71
2023-02-17T22:15:04.698Z,9.73
2023-02-17T22:17:55.156Z,9.70
2023-02-17T22:20:47.297Z,9.65
2023-02-17T22:23:39.585Z,9.60
2023-02-17T22:26:31.841Z,9.56
2023-02-17T22:29:23.871Z,9.61
2023-02-17T22:32:07.320Z,9.62
2023-02-17T22:34:59.729Z,9.63
2023-02-17T22:37:51.828Z,9.63
2023-02-17T22:40:44.115Z,9.65
2023-02-17T22:43:20.887Z,9.66
2023-02-17T22:46:16.116Z,9.66
2023-02-17T22:49:08.396Z,9.69
2023-02-17T22:52:00.499Z,9.78
2023-02-17T22:54:53.130Z,9.80
2023-02-17T22:57:47.236Z,9.82
2023-02-17T23:00:39.394Z,9.82
2023-02-17T23:03:31.525Z,9.82
2023-02-17T23:06:25.487Z,9.83
2023-02-17T23:09:20.176Z,9.84
2023-02-17T23:12:12.263Z,9.84
2023-02-17T23:15:04.725Z,9.92
2023-02-17T23:17:57.398Z,9.95
2023-02-17T23:20:51.661Z,9.97
2023-02-17T23:23:42.171Z,9.96
2023-02-17T23:26:34.262Z,9.94
2023-02-17T23:29:27.241Z,9.92
2023-02-17T23:32:08.351Z,9.91
2023-02-17T23:35:00.391Z,9.89
2023-02-17T23:37:53.569Z,9.90
2023-02-17T23:40:49.455Z,9.98
2023-02-17T23:43:41.619Z,10.01
2023-02-17T23:46:34.006Z,10.03
2023-02-17T23:49:26.244Z,10.02
2023-02-17T23:52:18.289Z,9.99
2023-02-17T23:55:11.310Z,9.99
2023-02-17T23:58:03.494Z,9.98
